Time;durP1;ratioP1;P1;durP2;ratioP2;P2;SDS_P1;SDS_P2;PMS_P1;PMS_P2;Temp;Humidity;BMP_temperature;BMP_pressure;BME280_temperature;BME280_humidity;BME280_pressure;Samples;Min_cycle;Max_cycle;Signal;HPM_P1;HPM_P2
2024/02/24 00:00:53;;;;;;;34.20;33.03;;;;;;;;;;4181512;28;20099;-55
2024/02/24 00:02:55;;;;;;;32.55;31.13;;;;;;;;;;4181462;28;20051;-55
2024/02/24 00:04:57;;;;;;;32.08;30.88;;;;;;;;;;4181053;28;20098;-53
2024/02/24 00:06:59;;;;;;;34.00;32.65;;;;;;;;;;4181340;28;20069;-54
2024/02/24 00:09:00;;;;;;;34.50;32.78;;;;;;;;;;4181396;28;20037;-55
2024/02/24 00:11:02;;;;;;;34.85;33.55;;;;;;;;;;4181784;28;20084;-55
2024/02/24 00:13:04;;;;;;;33.20;31.63;;;;;;;;;;4181682;28;20070;-56
2024/02/24 00:15:06;;;;;;;34.08;32.17;;;;;;;;;;4181620;28;20071;-56
2024/02/24 00:17:08;;;;;;;32.10;30.70;;;;;;;;;;4181487;28;20045;-55
2024/02/24 00:19:10;;;;;;;31.60;30.50;;;;;;;;;;4181459;28;20488;-56
2024/02/24 00:21:11;;;;;;;32.07;30.77;;;;;;;;;;4181308;28;20045;-56
2024/02/24 00:23:13;;;;;;;33.20;32.28;;;;;;;;;;4181378;28;20539;-56
2024/02/24 00:25:15;;;;;;;32.47;31.27;;;;;;;;;;4179890;28;20049;-55
2024/02/24 00:27:16;;;;;;;31.47;30.10;;;;;;;;;;4161974;28;20057;-55
2024/02/24 00:29:18;;;;;;;31.40;30.27;;;;;;;;;;4179524;28;20040;-55
2024/02/24 00:31:19;;;;;;;33.53;32.13;;;;;;;;;;4179656;28;20417;-55
2024/02/24 00:33:21;;;;;;;32.67;31.33;;;;;;;;;;4179865;28;20325;-55
2024/02/24 00:35:27;;;;;;;32.97;32.17;;;;;;;;;;4179914;28;20051;-56
2024/02/24 00:37:29;;;;;;;31.92;30.88;;;;;;;;;;4179929;28;20463;-55
2024/02/24 00:39:31;;;;;;;32.42;31.30;;;;;;;;;;4179729;28;20041;-55
2024/02/24 00:41:33;;;;;;;34.88;33.05;;;;;;;;;;4180169;28;20131;-55
2024/02/24 00:43:34;;;;;;;33.28;31.70;;;;;;;;;;4180762;28;20041;-56
2024/02/24 00:45:36;;;;;;;31.65;30.85;;;;;;;;;;4180891;28;20413;-56
2024/02/24 00:47:38;;;;;;;35.20;33.50;;;;;;;;;;4180891;28;20061;-56
2024/02/24 00:49:39;;;;;;;33.70;32.47;;;;;;;;;;4181196;28;20044;-56
2024/02/24 00:51:41;;;;;;;32.77;31.40;;;;;;;;;;4181047;28;20439;-54
2024/02/24 00:53:43;;;;;;;33.37;31.90;;;;;;;;;;4180695;28;20378;-55
2024/02/24 00:55:45;;;;;;;34.13;32.55;;;;;;;;;;4180993;28;20427;-54
2024/02/24 00:57:46;;;;;;;31.70;30.67;;;;;;;;;;4163162;28;20136;-55
2024/02/24 00:59:48;;;;;;;33.65;32.10;;;;;;;;;;4180998;28;20037;-55
2024/02/24 01:01:50;;;;;;;30.90;29.70;;;;;;;;;;4181020;28;20041;-54
2024/02/24 01:03:51;;;;;;;32.67;31.67;;;;;;;;;;4180498;28;20049;-55
2024/02/24 01:05:53;;;;;;;29.40;28.47;;;;;;;;;;4180987;28;20037;-55
2024/02/24 01:07:56;;;;;;;33.42;32.13;;;;;;;;;;4180875;28;20393;-55
2024/02/24 01:09:58;;;;;;;30.50;29.30;;;;;;;;;;4180678;28;20041;-55
2024/02/24 01:12:02;;;;;;;32.10;31.02;;;;;;;;;;4180590;28;20558;-55
2024/02/24 01:14:04;;;;;;;32.22;30.40;;;;;;;;;;4180844;28;20044;-53
2024/02/24 01:16:06;;;;;;;30.48;29.38;;;;;;;;;;4180644;28;20088;-55
2024/02/24 01:18:07;;;;;;;30.40;29.33;;;;;;;;;;4180939;28;20103;-55
2024/02/24 01:20:09;;;;;;;31.48;30.33;;;;;;;;;;4180669;28;20072;-55
2024/02/24 01:22:15;;;;;;;30.10;28.88;;;;;;;;;;4180467;28;20087;-55
2024/02/24 01:24:17;;;;;;;33.72;32.40;;;;;;;;;;4180659;28;20045;-55
2024/02/24 01:26:19;;;;;;;31.97;31.03;;;;;;;;;;4181031;28;20033;-55
2024/02/24 01:28:21;;;;;;;33.33;32.13;;;;;;;;;;4180530;28;20508;-55
2024/02/24 01:30:24;;;;;;;31.83;30.83;;;;;;;;;;4180329;28;20278;-55
2024/02/24 01:32:26;;;;;;;31.85;30.73;;;;;;;;;;4180562;28;20147;-55
2024/02/24 01:34:28;;;;;;;32.47;31.33;;;;;;;;;;4180594;28;20041;-55
2024/02/24 01:36:30;;;;;;;32.30;30.90;;;;;;;;;;4162675;28;20049;-54
2024/02/24 01:38:31;;;;;;;34.37;33.10;;;;;;;;;;4183578;28;20290;-54
2024/02/24 01:40:33;;;;;;;34.05;32.20;;;;;;;;;;4185307;28;20055;-54
2024/02/24 01:42:35;;;;;;;31.15;30.10;;;;;;;;;;4184202;28;20049;-54
2024/02/24 01:44:36;;;;;;;31.63;29.67;;;;;;;;;;4183248;28;20049;-54
2024/02/24 01:46:38;;;;;;;35.28;33.75;;;;;;;;;;4183765;28;20501;-55
2024/02/24 01:48:40;;;;;;;30.93;29.87;;;;;;;;;;4183650;28;20076;-54
2024/02/24 01:50:41;;;;;;;32.10;30.60;;;;;;;;;;4183667;28;20500;-55
2024/02/24 01:52:46;;;;;;;32.30;31.30;;;;;;;;;;4183496;28;20052;-56
2024/02/24 01:54:48;;;;;;;31.40;29.88;;;;;;;;;;4183650;28;20059;-55
2024/02/24 01:56:50;;;;;;;31.73;30.27;;;;;;;;;;4183592;28;20047;-56
2024/02/24 01:58:52;;;;;;;32.17;30.92;;;;;;;;;;4182945;28;20546;-55
2024/02/24 02:00:54;;;;;;;32.13;30.52;;;;;;;;;;4183634;28;20045;-54
2024/02/24 02:02:55;;;;;;;32.22;31.05;;;;;;;;;;4182256;28;20045;-54
2024/02/24 02:04:57;;;;;;;34.95;32.85;;;;;;;;;;4183254;28;20425;-54
2024/02/24 02:06:59;;;;;;;40.40;37.25;;;;;;;;;;4165581;28;20457;-54
2024/02/24 02:09:02;;;;;;;32.40;30.88;;;;;;;;;;4183298;28;20048;-55
2024/02/24 02:11:03;;;;;;;32.20;31.23;;;;;;;;;;4183250;28;20037;-55
2024/02/24 02:13:05;;;;;;;32.25;31.13;;;;;;;;;;4183188;28;20068;-55
2024/02/24 02:15:08;;;;;;;32.15;31.05;;;;;;;;;;4183269;28;20049;-55
2024/02/24 02:17:10;;;;;;;32.08;30.73;;;;;;;;;;4183182;28;20128;-55
2024/02/24 02:19:12;;;;;;;31.58;30.60;;;;;;;;;;4165446;28;20053;-56
2024/02/24 02:21:15;;;;;;;33.30;31.90;;;;;;;;;;4183137;28;20037;-56
2024/02/24 02:23:16;;;;;;;32.50;30.88;;;;;;;;;;4183141;28;20767;-54
2024/02/24 02:25:18;;;;;;;31.70;30.37;;;;;;;;;;4183105;28;20119;-55
2024/02/24 02:27:20;;;;;;;31.10;30.08;;;;;;;;;;4165144;28;20037;-54
2024/02/24 02:29:22;;;;;;;;;;;;;;;;;;4182233;28;20041;-54
2024/02/24 02:31:23;;;;;;;33.35;32.13;;;;;;;;;;4182402;28;19921;-56
2024/02/24 02:33:25;;;;;;;31.70;29.70;;;;;;;;;;4182234;28;20099;-55
2024/02/24 02:35:27;;;;;;;33.20;31.33;;;;;;;;;;4182442;28;20408;-55
2024/02/24 02:37:30;;;;;;;33.95;32.55;;;;;;;;;;4182427;28;20068;-56
2024/02/24 02:39:32;;;;;;;29.80;28.70;;;;;;;;;;4181903;28;20508;-55
2024/02/24 02:41:34;;;;;;;29.05;28.00;;;;;;;;;;4182976;28;20041;-55
2024/02/24 02:43:35;;;;;;;34.42;32.88;;;;;;;;;;4170058;28;20453;-55
2024/02/24 02:45:37;;;;;;;33.70;32.40;;;;;;;;;;4184857;28;20040;-56
2024/02/24 02:47:38;;;;;;;33.60;32.37;;;;;;;;;;4182777;28;20033;-56
2024/02/24 02:49:40;;;;;;;30.33;29.30;;;;;;;;;;4181485;28;20095;-54
2024/02/24 02:51:42;;;;;;;34.90;32.97;;;;;;;;;;4182995;28;20035;-55
2024/02/24 02:53:44;;;;;;;31.97;30.83;;;;;;;;;;4185083;28;20033;-55
2024/02/24 02:55:45;;;;;;;32.40;31.20;;;;;;;;;;4182730;28;20041;-55
2024/02/24 02:57:48;;;;;;;32.88;31.13;;;;;;;;;;4182889;28;20488;-55
2024/02/24 02:59:49;;;;;;;28.33;27.10;;;;;;;;;;4182852;28;20098;-55
2024/02/24 03:01:51;;;;;;;31.37;29.67;;;;;;;;;;4182724;28;20128;-54
2024/02/24 03:03:53;;;;;;;31.65;30.55;;;;;;;;;;4164430;28;20049;-56
2024/02/24 03:05:54;;;;;;;33.20;30.88;;;;;;;;;;4164660;28;20045;-55
2024/02/24 03:07:56;;;;;;;33.17;31.93;;;;;;;;;;4182416;28;20064;-55
2024/02/24 03:09:58;;;;;;;31.10;29.58;;;;;;;;;;4182782;28;20064;-55
2024/02/24 03:11:59;;;;;;;32.53;30.85;;;;;;;;;;4182374;28;20053;-55
2024/02/24 03:14:02;;;;;;;31.30;29.25;;;;;;;;;;4196361;28;20116;-55
2024/02/24 03:16:03;;;;;;;32.35;31.25;;;;;;;;;;4198711;28;20048;-53
2024/02/24 03:18:05;;;;;;;31.90;30.83;;;;;;;;;;4198724;28;20041;-55
2024/02/24 03:20:08;;;;;;;34.13;32.53;;;;;;;;;;4199065;28;20302;-55
2024/02/24 03:22:10;;;;;;;30.98;29.83;;;;;;;;;;4198462;28;20279;-55
2024/02/24 03:24:12;;;;;;;27.02;25.92;;;;;;;;;;4180912;28;20044;-55
2024/02/24 03:26:13;;;;;;;32.10;30.10;;;;;;;;;;4198576;28;20095;-55
2024/02/24 03:28:16;;;;;;;30.20;28.65;;;;;;;;;;4198726;28;20032;-55
2024/02/24 03:30:18;;;;;;;31.00;29.90;;;;;;;;;;4198697;28;20040;-54
2024/02/24 03:32:20;;;;;;;30.20;28.55;;;;;;;;;;4198474;28;20443;-55
2024/02/24 03:34:21;;;;;;;32.20;30.33;;;;;;;;;;4198409;28;20044;-54
2024/02/24 03:36:24;;;;;;;33.63;31.73;;;;;;;;;;4198279;28;20293;-55
2024/02/24 03:38:26;;;;;;;33.95;31.73;;;;;;;;;;4198365;28;20037;-55
2024/02/24 03:40:28;;;;;;;31.42;29.50;;;;;;;;;;4183257;28;20391;-53
2024/02/24 03:42:29;;;;;;;29.83;28.85;;;;;;;;;;4181657;28;20440;-54
2024/02/24 03:44:31;;;;;;;31.43;30.10;;;;;;;;;;4181690;28;20045;-54
2024/02/24 03:46:33;;;;;;;32.07;30.83;;;;;;;;;;4185210;28;20044;-55
2024/02/24 03:48:35;;;;;;;30.90;29.33;;;;;;;;;;4196987;28;20039;-55
2024/02/24 03:50:37;;;;;;;29.40;28.08;;;;;;;;;;4197970;28;20090;-55
2024/02/24 03:52:39;;;;;;;29.77;27.97;;;;;;;;;;4198179;28;20043;-55
2024/02/24 03:54:41;;;;;;;;;;;;;;;;;;4198508;28;20287;-55
2024/02/24 03:56:43;;;;;;;32.42;30.65;;;;;;;;;;4197920;28;19929;-54
2024/02/24 03:58:45;;;;;;;31.33;29.48;;;;;;;;;;4197933;28;20049;-55
2024/02/24 04:00:47;;;;;;;29.00;27.85;;;;;;;;;;4197646;28;20522;-55
2024/02/24 04:02:48;;;;;;;28.23;27.27;;;;;;;;;;4197717;28;20041;-55
2024/02/24 04:04:52;;;;;;;31.13;29.65;;;;;;;;;;4163297;28;20069;-55
2024/02/24 04:06:53;;;;;;;31.15;29.83;;;;;;;;;;4198003;28;20047;-55
2024/02/24 04:08:55;;;;;;;28.02;26.83;;;;;;;;;;4163369;28;20050;-55
2024/02/24 04:10:57;;;;;;;31.88;29.90;;;;;;;;;;4179909;28;20045;-55
2024/02/24 04:12:59;;;;;;;30.40;28.67;;;;;;;;;;4197765;28;20045;-54
2024/02/24 04:15:00;;;;;;;33.05;31.58;;;;;;;;;;4179947;28;20330;-54
2024/02/24 04:17:02;;;;;;;31.63;30.25;;;;;;;;;;4197953;28;20041;-54
2024/02/24 04:19:03;;;;;;;30.80;29.45;;;;;;;;;;4189127;28;20048;-55
2024/02/24 04:21:05;;;;;;;28.42;27.02;;;;;;;;;;4181227;28;20534;-53
2024/02/24 04:23:07;;;;;;;33.20;31.92;;;;;;;;;;4181061;28;20041;-54
2024/02/24 04:25:09;;;;;;;29.98;28.95;;;;;;;;;;4181113;28;20095;-54
2024/02/24 04:27:11;;;;;;;31.50;29.75;;;;;;;;;;4181067;28;20500;-55
2024/02/24 04:29:12;;;;;;;33.67;32.05;;;;;;;;;;4181360;28;20098;-55
2024/02/24 04:31:14;;;;;;;29.63;28.73;;;;;;;;;;4181497;28;20499;-56
2024/02/24 04:33:16;;;;;;;31.35;29.60;;;;;;;;;;4180964;28;20076;-55
2024/02/24 04:35:19;;;;;;;31.17;30.23;;;;;;;;;;4181142;28;20119;-55
2024/02/24 04:37:20;;;;;;;31.03;30.23;;;;;;;;;;4180877;28;20125;-56
2024/02/24 04:39:22;;;;;;;31.48;30.05;;;;;;;;;;4181223;28;20048;-54
2024/02/24 04:41:25;;;;;;;32.08;30.50;;;;;;;;;;4163116;28;20069;-55
2024/02/24 04:43:26;;;;;;;34.72;32.72;;;;;;;;;;4181088;28;20040;-55
2024/02/24 04:45:28;;;;;;;33.90;31.52;;;;;;;;;;4180490;28;20060;-55
2024/02/24 04:47:29;;;;;;;31.97;30.23;;;;;;;;;;4181062;28;20576;-55
2024/02/24 04:49:32;;;;;;;30.80;29.33;;;;;;;;;;4181058;28;20041;-55
2024/02/24 04:51:34;;;;;;;32.63;31.17;;;;;;;;;;4180745;28;20337;-54
2024/02/24 04:53:35;;;;;;;33.65;31.95;;;;;;;;;;4180702;28;20044;-55
2024/02/24 04:55:37;;;;;;;32.25;31.02;;;;;;;;;;4180885;28;20377;-55
2024/02/24 04:57:38;;;;;;;34.93;32.77;;;;;;;;;;4180643;28;20107;-55
2024/02/24 04:59:40;;;;;;;31.50;30.55;;;;;;;;;;4180990;28;20048;-55
2024/02/24 05:01:42;;;;;;;31.77;30.67;;;;;;;;;;4180763;28;20043;-55
2024/02/24 05:03:43;;;;;;;30.15;29.15;;;;;;;;;;4180571;28;20512;-55
2024/02/24 05:05:45;;;;;;;33.00;31.30;;;;;;;;;;4182618;28;20508;-55
2024/02/24 05:07:47;;;;;;;29.23;28.23;;;;;;;;;;4180651;28;20106;-55
2024/02/24 05:09:48;;;;;;;31.58;30.27;;;;;;;;;;4180636;28;20041;-55
2024/02/24 05:11:50;;;;;;;29.77;29.05;;;;;;;;;;4162298;28;20045;-54
2024/02/24 05:13:52;;;;;;;31.08;29.70;;;;;;;;;;4197072;28;20091;-54
2024/02/24 05:15:54;;;;;;;32.88;31.77;;;;;;;;;;4183543;28;20404;-55
2024/02/24 05:17:55;;;;;;;35.20;33.75;;;;;;;;;;4180203;28;20044;-55
2024/02/24 05:19:57;;;;;;;33.22;31.58;;;;;;;;;;4180767;28;20041;-55
2024/02/24 05:21:58;;;;;;;34.45;33.05;;;;;;;;;;4180455;28;20045;-55
2024/02/24 05:24:00;;;;;;;32.08;30.88;;;;;;;;;;4180725;28;20099;-56
2024/02/24 05:26:02;;;;;;;31.85;30.73;;;;;;;;;;4180384;28;20443;-56
2024/02/24 05:28:03;;;;;;;31.67;30.07;;;;;;;;;;4180403;28;20037;-54
2024/02/24 05:30:05;;;;;;;33.10;31.55;;;;;;;;;;4180374;28;20041;-55
2024/02/24 05:32:07;;;;;;;35.03;33.38;;;;;;;;;;4180424;28;20040;-55
2024/02/24 05:34:08;;;;;;;32.40;30.63;;;;;;;;;;4180239;28;20040;-55
2024/02/24 05:36:10;;;;;;;30.42;28.98;;;;;;;;;;4181030;28;20040;-55
2024/02/24 05:38:12;;;;;;;30.08;28.75;;;;;;;;;;4180504;28;20078;-55
2024/02/24 05:40:15;;;;;;;32.13;30.67;;;;;;;;;;4180378;28;20045;-55
2024/02/24 05:42:17;;;;;;;30.25;28.92;;;;;;;;;;4180373;28;20287;-55
2024/02/24 05:44:18;;;;;;;33.37;31.70;;;;;;;;;;4180450;28;20041;-55
2024/02/24 05:46:20;;;;;;;31.92;30.45;;;;;;;;;;4180483;28;20374;-55
2024/02/24 05:48:22;;;;;;;30.13;29.40;;;;;;;;;;4180291;28;20041;-55
2024/02/24 05:50:24;;;;;;;31.67;30.50;;;;;;;;;;4180347;28;20037;-55
2024/02/24 05:52:26;;;;;;;33.37;31.57;;;;;;;;;;4180508;28;20477;-55
2024/02/24 05:54:27;;;;;;;33.13;31.48;;;;;;;;;;4180497;28;20287;-55
2024/02/24 05:56:29;;;;;;;34.60;33.40;;;;;;;;;;4180324;28;20532;-56
2024/02/24 05:58:31;;;;;;;31.65;30.50;;;;;;;;;;4180268;28;20045;-55
2024/02/24 06:00:32;;;;;;;31.20;30.00;;;;;;;;;;4180392;28;20562;-56
2024/02/24 06:02:34;;;;;;;32.80;31.60;;;;;;;;;;4180163;28;20049;-56
2024/02/24 06:04:38;;;;;;;30.77;29.77;;;;;;;;;;4162289;28;20291;-55
2024/02/24 06:06:40;;;;;;;30.65;29.30;;;;;;;;;;4180190;28;20507;-55
2024/02/24 06:08:42;;;;;;;31.02;29.92;;;;;;;;;;4180397;28;20072;-54
2024/02/24 06:10:44;;;;;;;35.25;33.40;;;;;;;;;;4180162;28;20040;-55
2024/02/24 06:12:45;;;;;;;29.90;28.88;;;;;;;;;;4180097;28;20072;-54
2024/02/24 06:14:47;;;;;;;34.37;32.67;;;;;;;;;;4180332;28;20037;-55
2024/02/24 06:16:49;;;;;;;34.78;32.88;;;;;;;;;;4180374;28;20121;-56
2024/02/24 06:18:50;;;;;;;34.30;33.08;;;;;;;;;;4180183;28;20037;-55
2024/02/24 06:20:52;;;;;;;33.88;32.55;;;;;;;;;;4180006;28;20052;-54
2024/02/24 06:22:54;;;;;;;32.50;31.35;;;;;;;;;;4180277;28;20614;-56
2024/02/24 06:24:56;;;;;;;31.35;29.98;;;;;;;;;;4169302;28;20033;-54
2024/02/24 06:26:58;;;;;;;34.63;33.13;;;;;;;;;;4188561;28;20044;-54
2024/02/24 06:28:59;;;;;;;34.50;32.45;;;;;;;;;;4187453;28;20094;-55
2024/02/24 06:31:01;;;;;;;30.80;29.60;;;;;;;;;;4189582;28;20068;-54
2024/02/24 06:33:03;;;;;;;30.58;29.58;;;;;;;;;;4182829;28;20041;-56
2024/02/24 06:35:04;;;;;;;34.13;32.85;;;;;;;;;;4182696;28;20037;-55
2024/02/24 06:37:06;;;;;;;31.90;30.80;;;;;;;;;;4182861;28;20053;-55
2024/02/24 06:39:08;;;;;;;31.33;30.15;;;;;;;;;;4185239;28;20492;-56
2024/02/24 06:41:10;;;;;;;30.05;29.05;;;;;;;;;;4190650;28;20599;-55
2024/02/24 06:43:11;;;;;;;32.28;31.08;;;;;;;;;;4188069;28;20119;-55
2024/02/24 06:45:13;;;;;;;33.67;32.13;;;;;;;;;;4186521;28;20047;-55
2024/02/24 06:47:15;;;;;;;33.22;32.10;;;;;;;;;;4182043;28;20295;-54
2024/02/24 06:49:29;;;;;;;37.63;35.92;;;;;;;;;;4195341;28;20123;-54
2024/02/24 06:51:31;;;;;;;34.17;32.67;;;;;;;;;;4195458;28;20047;-55
2024/02/24 06:53:32;;;;;;;32.63;31.30;;;;;;;;;;4188917;28;20101;-54
2024/02/24 06:55:34;;;;;;;33.33;31.77;;;;;;;;;;4183971;28;20057;-54
2024/02/24 06:57:36;;;;;;;31.90;30.60;;;;;;;;;;4179854;28;20041;-54
2024/02/24 06:59:38;;;;;;;32.63;31.23;;;;;;;;;;4197993;28;20070;-56
2024/02/24 07:01:39;;;;;;;31.77;30.27;;;;;;;;;;4172133;28;20455;-60
2024/02/24 07:03:41;;;;;;;32.85;31.55;;;;;;;;;;4198735;28;20060;-59
2024/02/24 07:05:43;;;;;;;33.17;32.03;;;;;;;;;;4198752;28;20036;-61
2024/02/24 07:07:44;;;;;;;31.63;30.88;;;;;;;;;;4185240;28;20048;-61
2024/02/24 07:09:47;;;;;;;35.43;33.97;;;;;;;;;;4192371;28;20036;-61
2024/02/24 07:11:49;;;;;;;32.50;31.40;;;;;;;;;;4188564;28;20723;-61
2024/02/24 07:13:50;;;;;;;33.43;32.40;;;;;;;;;;4191287;28;20110;-61
2024/02/24 07:15:52;;;;;;;32.28;30.80;;;;;;;;;;4194645;28;20279;-61
2024/02/24 07:17:54;;;;;;;32.33;31.27;;;;;;;;;;4180436;28;20447;-61
2024/02/24 07:19:55;;;;;;;34.53;33.13;;;;;;;;;;4170458;28;20120;-61
2024/02/24 07:21:57;;;;;;;30.75;29.50;;;;;;;;;;4181404;28;20041;-61
2024/02/24 07:23:59;;;;;;;34.73;33.30;;;;;;;;;;4196307;28;20044;-60
2024/02/24 07:26:01;;;;;;;34.80;33.60;;;;;;;;;;4196553;28;20037;-61
2024/02/24 07:28:03;;;;;;;30.55;29.35;;;;;;;;;;4186709;28;20065;-61
2024/02/24 07:30:05;;;;;;;32.95;31.00;;;;;;;;;;4188242;28;20033;-61
2024/02/24 07:32:06;;;;;;;32.10;31.08;;;;;;;;;;4193777;28;20041;-61
2024/02/24 07:34:08;;;;;;;33.55;31.88;;;;;;;;;;4189084;28;20038;-61
2024/02/24 07:36:10;;;;;;;32.05;30.95;;;;;;;;;;4183388;28;20066;-61
2024/02/24 07:38:12;;;;;;;31.42;30.30;;;;;;;;;;4180008;28;20037;-61
2024/02/24 07:40:14;;;;;;;33.80;32.67;;;;;;;;;;4179314;28;20080;-61
2024/02/24 07:42:16;;;;;;;31.77;30.33;;;;;;;;;;4181010;28;20037;-61
2024/02/24 07:44:17;;;;;;;34.50;33.33;;;;;;;;;;4181483;28;20041;-61
2024/02/24 07:46:27;;;;;;;29.20;28.23;;;;;;;;;;4182954;28;20036;-61
2024/02/24 07:48:28;;;;;;;30.77;29.40;;;;;;;;;;4178712;28;20048;-61
2024/02/24 07:50:31;;;;;;;29.15;28.00;;;;;;;;;;4178859;28;20045;-61
2024/02/24 07:52:33;;;;;;;30.52;29.63;;;;;;;;;;4188103;28;20526;-61
2024/02/24 07:54:35;;;;;;;29.30;28.40;;;;;;;;;;4193042;28;20037;-60
2024/02/24 07:56:37;;;;;;;29.43;28.07;;;;;;;;;;4184191;28;20055;-61
2024/02/24 07:58:39;;;;;;;29.15;28.38;;;;;;;;;;4162743;28;20588;-61
2024/02/24 08:00:40;;;;;;;30.07;29.10;;;;;;;;;;4181357;28;20045;-61
2024/02/24 08:02:46;;;;;;;29.83;28.60;;;;;;;;;;4181660;28;20045;-60
2024/02/24 08:04:48;;;;;;;27.93;26.60;;;;;;;;;;4180697;28;20055;-60
2024/02/24 08:06:50;;;;;;;29.43;28.47;;;;;;;;;;4197899;28;20295;-61
2024/02/24 08:08:52;;;;;;;31.50;30.42;;;;;;;;;;4194915;28;20075;-61
2024/02/24 08:10:54;;;;;;;31.75;30.10;;;;;;;;;;4193923;28;20044;-61
2024/02/24 08:12:58;;;;;;;28.65;27.50;;;;;;;;;;4179414;28;20041;-60
2024/02/24 08:15:00;;;;;;;31.00;29.87;;;;;;;;;;4179182;28;20137;-60
2024/02/24 08:17:02;;;;;;;31.40;30.47;;;;;;;;;;4183372;28;20037;-58
2024/02/24 08:19:05;;;;;;;29.63;28.65;;;;;;;;;;4181171;28;20348;-59
2024/02/24 08:21:08;;;;;;;27.73;27.08;;;;;;;;;;4184590;28;20068;-60
2024/02/24 08:23:10;;;;;;;30.20;29.15;;;;;;;;;;4188862;28;20075;-58
2024/02/24 08:25:11;;;;;;;30.07;28.63;;;;;;;;;;4180886;28;20048;-59
2024/02/24 08:27:13;;;;;;;27.63;26.40;;;;;;;;;;4178595;28;20345;-59
2024/02/24 08:29:15;;;;;;;28.73;27.30;;;;;;;;;;4163296;28;20037;-58
2024/02/24 08:31:17;;;;;;;29.40;28.37;;;;;;;;;;4181289;28;20116;-59
2024/02/24 08:33:22;;;;;;;29.80;28.70;;;;;;;;;;4181252;28;20045;-59
2024/02/24 08:35:24;;;;;;;31.67;30.17;;;;;;;;;;4181153;28;20378;-59
2024/02/24 08:37:26;;;;;;;30.48;29.63;;;;;;;;;;4180914;28;20043;-58
2024/02/24 08:39:27;;;;;;;30.58;29.35;;;;;;;;;;4180862;28;20037;-60
2024/02/24 08:41:31;;;;;;;28.10;26.83;;;;;;;;;;4180783;28;20060;-59
2024/02/24 08:43:33;;;;;;;28.52;27.63;;;;;;;;;;4180667;28;20041;-59
2024/02/24 08:45:35;;;;;;;29.98;28.88;;;;;;;;;;4180787;28;20090;-59
2024/02/24 08:47:37;;;;;;;29.20;28.40;;;;;;;;;;4180092;28;20091;-59
2024/02/24 08:49:38;;;;;;;28.33;27.60;;;;;;;;;;4180710;28;20055;-59
2024/02/24 08:51:40;;;;;;;26.98;26.00;;;;;;;;;;4180620;28;20045;-59
2024/02/24 08:53:42;;;;;;;30.00;28.67;;;;;;;;;;4179448;28;20044;-59
2024/02/24 08:55:44;;;;;;;28.90;28.05;;;;;;;;;;4179912;28;20045;-58
2024/02/24 08:57:45;;;;;;;29.63;27.80;;;;;;;;;;4191043;28;20059;-59
2024/02/24 08:59:48;;;;;;;29.73;28.47;;;;;;;;;;4182073;28;20040;-59
2024/02/24 09:01:51;;;;;;;31.08;29.48;;;;;;;;;;4181341;28;20071;-59
2024/02/24 09:03:53;;;;;;;26.48;25.65;;;;;;;;;;4182743;28;20064;-58
2024/02/24 09:05:55;;;;;;;30.40;28.80;;;;;;;;;;4181855;28;20374;-59
2024/02/24 09:07:56;;;;;;;30.40;29.25;;;;;;;;;;4181718;28;20041;-59
2024/02/24 09:09:58;;;;;;;26.15;25.10;;;;;;;;;;4180482;28;20409;-59
2024/02/24 09:12:06;;;;;;;27.30;26.40;;;;;;;;;;4182397;28;20037;-60
2024/02/24 09:14:07;;;;;;;29.48;28.08;;;;;;;;;;4180146;28;20448;-59
2024/02/24 09:16:14;;;;;;;30.17;28.97;;;;;;;;;;4179069;28;20033;-59
2024/02/24 09:18:16;;;;;;;29.58;27.90;;;;;;;;;;4180556;28;20041;-59
2024/02/24 09:20:17;;;;;;;29.85;28.13;;;;;;;;;;4185542;28;20044;-59
2024/02/24 09:22:19;;;;;;;28.70;27.35;;;;;;;;;;4190864;28;20072;-59
2024/02/24 09:24:21;;;;;;;31.10;29.73;;;;;;;;;;4193480;28;20047;-60
2024/02/24 09:26:23;;;;;;;28.37;27.07;;;;;;;;;;4195282;28;20094;-59
2024/02/24 09:28:24;;;;;;;30.83;29.38;;;;;;;;;;4195079;28;20048;-60
2024/02/24 09:30:26;;;;;;;28.00;27.13;;;;;;;;;;4190372;28;20438;-60
2024/02/24 09:32:28;;;;;;;29.27;28.23;;;;;;;;;;4179032;28;20033;-60
2024/02/24 09:34:29;;;;;;;29.67;28.30;;;;;;;;;;4179182;28;20604;-60
2024/02/24 09:36:31;;;;;;;29.60;28.25;;;;;;;;;;4180563;28;20049;-60
2024/02/24 09:38:33;;;;;;;30.50;29.02;;;;;;;;;;4180282;28;20520;-60
2024/02/24 09:40:34;;;;;;;28.33;26.70;;;;;;;;;;4180002;28;20532;-60
2024/02/24 09:42:37;;;;;;;28.10;27.03;;;;;;;;;;4180310;28;20150;-60
2024/02/24 09:44:38;;;;;;;29.63;28.48;;;;;;;;;;4180238;28;20535;-60
2024/02/24 09:46:41;;;;;;;27.53;26.43;;;;;;;;;;4180199;28;20120;-60
2024/02/24 09:48:44;;;;;;;28.88;27.67;;;;;;;;;;4180399;28;20249;-59
2024/02/24 09:50:46;;;;;;;24.92;24.23;;;;;;;;;;4178845;28;20041;-60
2024/02/24 09:52:48;;;;;;;26.87;25.80;;;;;;;;;;4180479;28;20048;-60
2024/02/24 09:54:49;;;;;;;28.05;26.58;;;;;;;;;;4179562;28;20760;-61
2024/02/24 09:56:52;;;;;;;25.98;24.48;;;;;;;;;;4184314;28;20045;-59
2024/02/24 09:58:53;;;;;;;;;;;;;;;;;;4192534;28;20049;-60
2024/02/24 10:00:55;;;;;;;29.05;26.55;;;;;;;;;;4188626;28;19924;-60
2024/02/24 10:02:57;;;;;;;28.40;27.20;;;;;;;;;;4197063;28;20393;-60
2024/02/24 10:04:59;;;;;;;27.67;26.40;;;;;;;;;;4182064;28;20053;-59
2024/02/24 10:07:00;;;;;;;26.53;25.70;;;;;;;;;;4181775;28;20033;-60
2024/02/24 10:09:02;;;;;;;26.38;25.73;;;;;;;;;;4183180;28;20040;-60
2024/02/24 10:11:06;;;;;;;27.33;25.83;;;;;;;;;;4199494;28;20082;-60
2024/02/24 10:13:08;;;;;;;27.58;26.70;;;;;;;;;;4192898;28;20065;-59
2024/02/24 10:15:10;;;;;;;26.27;25.10;;;;;;;;;;4188887;28;20104;-60
2024/02/24 10:17:12;;;;;;;28.63;27.65;;;;;;;;;;4183761;28;20365;-60
2024/02/24 10:19:14;;;;;;;26.40;25.58;;;;;;;;;;4182856;28;20065;-60
2024/02/24 10:21:16;;;;;;;28.75;27.20;;;;;;;;;;4182815;28;20056;-59
2024/02/24 10:23:18;;;;;;;27.63;26.60;;;;;;;;;;4190793;28;20056;-60
2024/02/24 10:25:20;;;;;;;27.13;26.17;;;;;;;;;;4177914;28;20053;-60
2024/02/24 10:27:22;;;;;;;26.77;25.50;;;;;;;;;;4191282;28;20033;-60
2024/02/24 10:29:30;;;;;;;26.02;24.90;;;;;;;;;;4181818;28;20554;-60
2024/02/24 10:31:33;;;;;;;26.48;25.48;;;;;;;;;;4189430;28;20044;-59
2024/02/24 10:33:36;;;;;;;23.67;22.90;;;;;;;;;;4182386;28;20550;-59
2024/02/24 10:35:39;;;;;;;25.80;24.92;;;;;;;;;;4182799;28;20102;-60
2024/02/24 10:37:41;;;;;;;27.40;26.52;;;;;;;;;;4178359;28;20468;-60
2024/02/24 10:39:46;;;;;;;25.45;24.52;;;;;;;;;;4182791;28;20092;-61
2024/02/24 10:41:48;;;;;;;29.67;28.30;;;;;;;;;;4190648;28;20067;-60
2024/02/24 10:43:50;;;;;;;27.30;26.25;;;;;;;;;;4184159;28;20049;-60
2024/02/24 10:45:54;;;;;;;24.63;23.83;;;;;;;;;;4186103;28;20044;-60
2024/02/24 10:47:56;;;;;;;24.57;23.97;;;;;;;;;;4189321;28;20097;-60
2024/02/24 10:49:58;;;;;;;26.38;25.48;;;;;;;;;;4189564;28;20037;-60
2024/02/24 10:52:00;;;;;;;24.87;24.33;;;;;;;;;;4190924;28;20064;-60
2024/02/24 10:54:05;;;;;;;25.42;24.17;;;;;;;;;;4182072;28;20310;-61
2024/02/24 10:56:08;;;;;;;26.50;25.42;;;;;;;;;;4182474;28;20037;-60
2024/02/24 10:58:09;;;;;;;26.30;25.40;;;;;;;;;;4187315;28;20051;-59
2024/02/24 11:00:39;;;;;;;25.17;24.50;;;;;;;;;;4194348;28;20408;-60
2024/02/24 11:02:41;;;;;;;25.85;24.95;;;;;;;;;;4197078;28;20290;-59
2024/02/24 11:04:44;;;;;;;26.53;25.47;;;;;;;;;;4189103;28;20080;-60
2024/02/24 11:06:50;;;;;;;24.90;24.02;;;;;;;;;;4184350;28;20083;-60
2024/02/24 11:08:54;;;;;;;26.83;25.90;;;;;;;;;;4188743;28;20033;-60
2024/02/24 11:11:01;;;;;;;24.77;23.63;;;;;;;;;;4183395;28;20378;-60
2024/02/24 11:13:03;;;;;;;23.88;22.83;;;;;;;;;;4182133;28;20037;-60
2024/02/24 11:15:05;;;;;;;25.65;24.58;;;;;;;;;;4195371;28;20501;-60
2024/02/24 11:17:09;;;;;;;24.90;24.13;;;;;;;;;;4182194;28;20102;-59
2024/02/24 11:19:10;;;;;;;25.23;24.20;;;;;;;;;;4183413;28;20447;-59
2024/02/24 11:21:14;;;;;;;24.23;23.52;;;;;;;;;;4182555;28;20094;-59
2024/02/24 11:23:23;;;;;;;25.25;24.50;;;;;;;;;;4184864;28;20045;-59
2024/02/24 11:25:24;;;;;;;26.98;25.60;;;;;;;;;;4187196;28;20464;-59
2024/02/24 11:27:37;;;;;;;24.70;23.80;;;;;;;;;;4187588;28;20048;-60
2024/02/24 11:29:39;;;;;;;25.58;24.60;;;;;;;;;;4186801;28;20318;-60
2024/02/24 11:31:42;;;;;;;25.43;24.53;;;;;;;;;;4185727;28;20497;-59
2024/02/24 11:33:44;;;;;;;26.65;25.80;;;;;;;;;;4184933;28;20041;-60
2024/02/24 11:35:46;;;;;;;26.25;25.23;;;;;;;;;;4184246;28;20040;-60
2024/02/24 11:37:48;;;;;;;24.00;23.33;;;;;;;;;;4184201;28;20069;-60
2024/02/24 11:39:50;;;;;;;25.67;24.98;;;;;;;;;;4190779;28;20040;-60
2024/02/24 11:41:51;;;;;;;25.40;24.42;;;;;;;;;;4197586;28;20078;-60
2024/02/24 11:43:53;;;;;;;25.85;25.00;;;;;;;;;;4197993;28;20094;-60
2024/02/24 11:45:55;;;;;;;26.50;25.60;;;;;;;;;;4197796;28;20044;-59
2024/02/24 11:47:56;;;;;;;24.50;23.77;;;;;;;;;;4197048;28;20461;-59
2024/02/24 11:49:58;;;;;;;23.85;23.20;;;;;;;;;;4182172;28;20107;-59
2024/02/24 11:52:00;;;;;;;24.77;23.90;;;;;;;;;;4181599;28;20033;-59